createdAt,value
2019-04-29T00:01:19.076Z,9.60
2019-04-29T00:03:48.829Z,9.60
2019-04-29T00:06:18.435Z,9.70
2019-04-29T00:08:48.069Z,9.80
2019-04-29T00:11:17.788Z,9.70
2019-04-29T00:13:47.354Z,9.80
2019-04-29T00:16:43.040Z,9.80
2019-04-29T00:19:25.145Z,9.60
2019-04-29T00:21:54.743Z,9.60
2019-04-29T00:24:24.272Z,9.50
2019-04-29T00:26:53.872Z,9.50
2019-04-29T00:29:23.424Z,9.50
2019-04-29T00:31:53.000Z,9.60
2019-04-29T00:34:22.528Z,9.40
2019-04-29T00:37:02.207Z,9.30
2019-04-29T00:39:58.440Z,9.40
2019-04-29T00:42:49.346Z,9.40
2019-04-29T00:45:18.953Z,9.50
2019-04-29T00:47:48.501Z,9.50
2019-04-29T00:50:18.121Z,9.50
2019-04-29T00:52:47.764Z,9.70
2019-04-29T00:55:19.919Z,9.60
2019-04-29T00:57:49.455Z,9.60
2019-04-29T01:00:27.838Z,9.80
2019-04-29T01:02:57.377Z,9.70
2019-04-29T01:05:26.908Z,9.50
2019-04-29T01:07:56.516Z,9.60
2019-04-29T01:10:26.093Z,9.60
2019-04-29T01:12:55.617Z,9.60
2019-04-29T01:15:25.173Z,9.60
2019-04-29T01:17:54.880Z,9.50
2019-04-29T01:20:24.416Z,9.60
2019-04-29T01:22:53.968Z,9.70
2019-04-29T01:25:23.516Z,9.70
2019-04-29T01:27:59.355Z,9.70
2019-04-29T01:30:53.832Z,9.70
2019-04-29T01:33:23.999Z,9.70
2019-04-29T01:36:05.619Z,9.60
2019-04-29T01:38:35.165Z,9.60
2019-04-29T01:41:11.278Z,9.50
2019-04-29T01:43:59.815Z,9.60
2019-04-29T01:46:29.855Z,9.40
2019-04-29T01:48:59.530Z,9.40
2019-04-29T01:51:29.055Z,9.40
2019-04-29T01:53:58.620Z,9.40
2019-04-29T01:56:28.276Z,9.50
2019-04-29T01:58:58.902Z,9.40
2019-04-29T02:01:28.424Z,9.40
2019-04-29T02:03:57.993Z,9.40
2019-04-29T02:06:27.732Z,9.40
2019-04-29T02:08:57.452Z,9.20
2019-04-29T02:11:27.013Z,9.10
2019-04-29T02:13:56.569Z,9.00
2019-04-29T02:16:26.147Z,8.90
2019-04-29T02:18:56.740Z,8.90
2019-04-29T02:21:26.300Z,8.90
2019-04-29T02:24:10.181Z,8.90
2019-04-29T02:26:39.764Z,9.00
2019-04-29T02:29:10.287Z,8.90
2019-04-29T02:31:41.276Z,9.00
2019-04-29T02:34:10.928Z,8.80
2019-04-29T02:36:40.647Z,8.90
2019-04-29T02:39:28.529Z,8.90
2019-04-29T02:42:20.688Z,9.00
2019-04-29T02:44:52.329Z,9.00
2019-04-29T02:47:21.923Z,8.90
2019-04-29T02:49:51.537Z,8.90
2019-04-29T02:52:21.071Z,8.80
2019-04-29T02:54:52.625Z,8.80
2019-04-29T02:57:31.330Z,8.90
2019-04-29T03:00:10.382Z,8.90
2019-04-29T03:02:45.927Z,8.90
2019-04-29T03:05:18.002Z,8.70
2019-04-29T03:07:47.596Z,8.70
2019-04-29T03:10:17.254Z,8.70
2019-04-29T03:12:46.788Z,8.70
2019-04-29T03:15:28.648Z,8.80
2019-04-29T03:17:58.374Z,8.80
2019-04-29T03:20:34.439Z,8.80
2019-04-29T03:23:08.913Z,8.70
2019-04-29T03:25:38.562Z,8.80
2019-04-29T03:28:08.209Z,8.80
2019-04-29T03:30:37.882Z,8.80
2019-04-29T03:33:07.570Z,8.80
2019-04-29T03:35:37.194Z,8.70
2019-04-29T03:38:06.824Z,8.90
2019-04-29T03:40:36.529Z,9.00
2019-04-29T03:43:06.204Z,8.90
2019-04-29T03:45:35.901Z,8.90
2019-04-29T03:48:05.642Z,8.90
2019-04-29T03:50:36.227Z,8.80
2019-04-29T03:53:05.814Z,8.80
2019-04-29T03:55:39.918Z,8.80
2019-04-29T03:58:06.640Z,8.80
2019-04-29T04:00:36.207Z,8.90
2019-04-29T04:03:40.045Z,9.00
2019-04-29T04:06:22.241Z,9.00
2019-04-29T04:09:05.347Z,8.90
2019-04-29T04:11:27.210Z,9.00
2019-04-29T04:13:56.832Z,9.00
2019-04-29T04:16:45.626Z,9.00
2019-04-29T04:19:24.946Z,9.10
2019-04-29T04:21:54.786Z,9.10
2019-04-29T04:27:13.619Z,9.10
2019-04-29T04:29:43.235Z,9.10
2019-04-29T04:32:12.785Z,9.10
2019-04-29T04:34:42.377Z,9.20
2019-04-29T04:37:11.961Z,9.20
2019-04-29T04:39:43.367Z,9.10
2019-04-29T04:42:12.885Z,9.20
2019-04-29T04:44:49.110Z,9.30
2019-04-29T04:47:19.876Z,9.20
2019-04-29T04:49:49.478Z,9.20
2019-04-29T04:52:19.041Z,9.30
2019-04-29T04:54:50.594Z,9.20
2019-04-29T04:57:21.161Z,9.20
2019-04-29T04:59:52.387Z,9.30
2019-04-29T05:02:23.983Z,9.20
2019-04-29T05:04:54.162Z,9.30
2019-04-29T05:07:26.130Z,9.30
2019-04-29T05:09:56.985Z,9.20
2019-04-29T05:12:26.570Z,9.40
2019-04-29T05:14:56.114Z,9.40
2019-04-29T05:17:25.709Z,9.40
2019-04-29T05:19:55.262Z,9.50
2019-04-29T05:22:24.813Z,9.50
2019-04-29T05:24:54.377Z,9.50
2019-04-29T05:27:23.965Z,9.50
2019-04-29T05:29:53.533Z,9.50
2019-04-29T05:32:23.222Z,9.40
2019-04-29T05:34:55.095Z,9.30
2019-04-29T05:37:30.584Z,9.40
2019-04-29T05:40:00.130Z,9.40
2019-04-29T05:42:29.760Z,9.50
2019-04-29T05:45:20.079Z,9.60
2019-04-29T05:47:59.329Z,9.60
2019-04-29T05:50:39.287Z,9.50
2019-04-29T05:53:18.310Z,9.40
2019-04-29T05:55:47.973Z,9.40
2019-04-29T05:58:17.515Z,9.50
2019-04-29T06:00:56.425Z,9.50
2019-04-29T06:03:25.949Z,9.50
2019-04-29T06:05:55.560Z,9.50
2019-04-29T06:08:25.190Z,9.60
2019-04-29T06:10:55.004Z,9.70
2019-04-29T06:13:24.628Z,9.60
2019-04-29T06:15:54.289Z,9.60
2019-04-29T06:18:23.876Z,9.70
2019-04-29T06:20:53.457Z,9.60
2019-04-29T06:23:24.186Z,9.50
2019-04-29T06:25:55.010Z,9.60
2019-04-29T06:28:26.394Z,9.70
2019-04-29T06:30:55.957Z,9.70
2019-04-29T06:33:29.071Z,9.60
2019-04-29T06:35:57.121Z,9.60
2019-04-29T06:38:26.948Z,9.70
2019-04-29T06:40:56.666Z,9.80
2019-04-29T06:43:28.838Z,9.80
2019-04-29T06:45:57.529Z,9.80
2019-04-29T06:48:28.100Z,9.80
2019-04-29T06:50:57.674Z,9.80
2019-04-29T06:53:27.231Z,9.70
2019-04-29T06:56:00.089Z,9.70
2019-04-29T06:58:32.452Z,9.80
2019-04-29T07:01:02.981Z,9.80
2019-04-29T07:03:32.337Z,9.80
2019-04-29T07:06:01.915Z,9.90
2019-04-29T07:08:31.597Z,9.90
2019-04-29T07:11:02.890Z,10.00
2019-04-29T07:13:32.572Z,10.10
2019-04-29T07:16:02.190Z,10.10
2019-04-29T07:18:31.774Z,10.00
2019-04-29T07:21:01.333Z,10.10
2019-04-29T07:23:30.985Z,10.10
2019-04-29T07:26:00.551Z,10.10
2019-04-29T07:28:31.057Z,10.10
2019-04-29T07:31:02.658Z,10.10
2019-04-29T07:33:31.931Z,10.20
2019-04-29T07:36:10.756Z,10.10
2019-04-29T07:38:41.276Z,10.00
2019-04-29T07:41:04.124Z,10.00
2019-04-29T07:43:33.684Z,10.10
2019-04-29T07:46:09.829Z,10.10
2019-04-29T07:48:42.053Z,10.00
2019-04-29T07:51:10.722Z,10.10
2019-04-29T07:53:45.200Z,10.10
2019-04-29T07:56:14.948Z,10.00
2019-04-29T07:58:44.672Z,9.90
2019-04-29T08:01:14.202Z,9.90
2019-04-29T08:03:43.772Z,10.00
2019-04-29T08:06:13.360Z,10.20
2019-04-29T08:08:54.213Z,10.10
2019-04-29T08:11:15.320Z,10.10
2019-04-29T08:13:46.677Z,10.00
2019-04-29T08:16:17.193Z,9.80
2019-04-29T08:18:49.584Z,9.90
2019-04-29T08:21:18.785Z,9.80
2019-04-29T08:23:48.390Z,9.70
2019-04-29T08:26:18.036Z,9.70
2019-04-29T08:28:47.608Z,9.70
2019-04-29T08:31:21.110Z,9.70
2019-04-29T08:33:48.581Z,9.70
2019-04-29T08:36:18.176Z,9.60
2019-04-29T08:38:47.739Z,9.40
2019-04-29T08:41:21.534Z,9.50
2019-04-29T08:44:16.426Z,9.60
2019-04-29T08:46:51.905Z,9.70
2019-04-29T08:49:21.708Z,9.50
2019-04-29T08:51:51.255Z,9.60
2019-04-29T08:54:21.390Z,9.50
2019-04-29T08:57:02.158Z,9.60
2019-04-29T08:59:24.542Z,9.90
2019-04-29T09:01:53.637Z,9.80
2019-04-29T09:04:23.203Z,9.70
2019-04-29T09:06:52.849Z,9.70
2019-04-29T09:09:29.210Z,9.80
2019-04-29T09:11:53.781Z,9.90
2019-04-29T09:14:23.398Z,9.80
2019-04-29T09:16:53.336Z,10.00
2019-04-29T09:19:22.965Z,10.10
2019-04-29T09:21:56.481Z,10.20
2019-04-29T09:24:26.077Z,10.40
2019-04-29T09:27:12.061Z,10.20
2019-04-29T09:29:41.720Z,10.40
2019-04-29T09:32:11.385Z,10.50
2019-04-29T09:34:40.950Z,10.60
2019-04-29T09:37:10.541Z,10.20
2019-04-29T09:39:43.835Z,10.30
2019-04-29T09:42:50.315Z,10.50
2019-04-29T09:45:31.190Z,10.30
2019-04-29T09:48:00.794Z,10.30
2019-04-29T09:50:34.149Z,10.20
2019-04-29T09:53:01.785Z,10.30
2019-04-29T09:55:31.369Z,10.60
2019-04-29T09:58:01.095Z,10.70
2019-04-29T10:00:40.721Z,10.70
2019-04-29T10:03:16.897Z,10.70
2019-04-29T10:06:04.152Z,10.80
2019-04-29T10:08:33.719Z,10.70
2019-04-29T10:11:03.265Z,11.00
2019-04-29T10:13:33.418Z,11.20
2019-04-29T10:16:15.968Z,11.00
2019-04-29T10:18:53.330Z,10.90
2019-04-29T10:21:23.417Z,10.60
2019-04-29T10:23:56.511Z,10.40
2019-04-29T10:26:26.272Z,10.50
2019-04-29T10:29:02.924Z,10.50
2019-04-29T10:31:32.615Z,11.10
2019-04-29T10:34:02.174Z,11.00
2019-04-29T10:36:31.884Z,10.90
2019-04-29T10:41:50.154Z,11.30
2019-04-29T10:44:38.880Z,11.80
2019-04-29T10:47:29.647Z,12.00
2019-04-29T10:50:03.165Z,11.90
2019-04-29T10:52:38.399Z,11.90
2019-04-29T10:55:06.320Z,12.00
2019-04-29T10:57:36.397Z,11.70
2019-04-29T11:00:21.462Z,11.50
2019-04-29T11:02:49.414Z,11.40
2019-04-29T11:05:28.728Z,11.40
2019-04-29T11:08:04.147Z,11.60
2019-04-29T11:10:34.573Z,11.70
2019-04-29T11:13:04.271Z,11.60
2019-04-29T11:15:36.498Z,11.50
2019-04-29T11:18:08.193Z,11.80
2019-04-29T11:20:37.909Z,11.60
2019-04-29T11:23:27.112Z,11.70
2019-04-29T11:26:32.709Z,11.90
2019-04-29T11:29:05.009Z,11.90
2019-04-29T11:31:36.509Z,12.20
2019-04-29T11:34:24.353Z,12.30
2019-04-29T11:36:53.976Z,12.40
2019-04-29T11:39:23.720Z,12.60
2019-04-29T11:41:54.562Z,12.70
2019-04-29T11:44:26.465Z,12.70
2019-04-29T11:46:56.367Z,12.60
2019-04-29T11:49:34.733Z,12.60
2019-04-29T11:52:09.703Z,13.00
2019-04-29T11:54:35.919Z,13.00
2019-04-29T11:57:07.851Z,13.00
2019-04-29T11:59:47.267Z,13.50
2019-04-29T12:02:47.983Z,13.50
2019-04-29T12:05:34.496Z,13.20
2019-04-29T12:08:11.456Z,13.60
2019-04-29T12:10:38.320Z,13.50
2019-04-29T12:13:10.256Z,13.60
2019-04-29T12:16:01.661Z,13.60
2019-04-29T12:18:38.292Z,13.70
2019-04-29T12:21:25.624Z,14.30
2019-04-29T12:23:58.649Z,14.10
2019-04-29T12:26:28.946Z,14.20
2019-04-29T12:28:59.061Z,14.40
2019-04-29T12:31:35.130Z,14.70
2019-04-29T12:34:20.576Z,15.10
2019-04-29T12:36:55.868Z,14.90
2019-04-29T12:39:43.891Z,14.90
2019-04-29T12:42:49.216Z,15.20
2019-04-29T12:45:36.297Z,15.40
2019-04-29T12:48:06.539Z,15.50
2019-04-29T12:50:36.327Z,15.30
2019-04-29T12:53:05.992Z,15.00
2019-04-29T12:55:45.106Z,14.70
2019-04-29T12:58:10.492Z,14.80
2019-04-29T13:00:47.524Z,14.90
2019-04-29T13:03:39.422Z,14.70
2019-04-29T13:06:23.547Z,14.90
2019-04-29T13:08:51.858Z,15.00
2019-04-29T13:11:35.994Z,15.20
2019-04-29T13:13:56.770Z,15.30
2019-04-29T13:16:42.833Z,15.40
2019-04-29T13:19:46.100Z,15.50
2019-04-29T13:22:15.530Z,15.70
2019-04-29T13:24:46.410Z,17.00
2019-04-29T13:27:16.761Z,17.40
2019-04-29T13:29:47.381Z,17.60
2019-04-29T13:32:17.173Z,17.10
2019-04-29T13:34:48.402Z,17.00
2019-04-29T13:37:20.625Z,17.40
2019-04-29T13:39:49.532Z,17.20
2019-04-29T13:42:19.252Z,17.20
2019-04-29T13:45:05.486Z,17.50
2019-04-29T13:47:38.175Z,17.50
2019-04-29T13:50:34.006Z,17.90
2019-04-29T13:52:46.265Z,18.00
2019-04-29T13:55:17.948Z,18.00
2019-04-29T13:57:49.589Z,17.80
2019-04-29T14:00:40.911Z,17.80
2019-04-29T14:03:17.036Z,18.00
2019-04-29T14:05:46.740Z,18.00
2019-04-29T14:08:16.348Z,17.80
2019-04-29T14:10:46.740Z,17.80
2019-04-29T14:13:20.845Z,18.60
2019-04-29T14:15:49.412Z,19.80
2019-04-29T14:18:18.993Z,20.50
2019-04-29T14:20:51.909Z,20.40
2019-04-29T14:23:21.118Z,21.30
2019-04-29T14:25:50.686Z,21.70
2019-04-29T14:28:20.313Z,21.10
2019-04-29T14:30:49.930Z,20.70
2019-04-29T14:33:24.353Z,20.50
2019-04-29T14:36:01.491Z,20.30
2019-04-29T14:38:31.219Z,20.50
2019-04-29T14:41:00.865Z,20.60
2019-04-29T14:43:54.498Z,20.40
2019-04-29T14:46:36.280Z,20.10
2019-04-29T14:49:08.825Z,20.00
2019-04-29T14:51:38.480Z,19.60
2019-04-29T14:54:08.046Z,20.40
2019-04-29T14:56:37.653Z,21.00
2019-04-29T14:59:07.707Z,21.40
2019-04-29T15:01:47.236Z,21.70
2019-04-29T15:04:19.442Z,21.90
2019-04-29T15:06:49.072Z,21.60
2019-04-29T15:09:19.995Z,21.10
2019-04-29T15:11:59.048Z,20.20
2019-04-29T15:14:47.587Z,20.00
2019-04-29T15:17:31.919Z,20.70
2019-04-29T15:20:25.236Z,21.20
2019-04-29T15:22:53.214Z,21.90
2019-04-29T15:25:22.769Z,21.50
2019-04-29T15:27:52.308Z,21.80
2019-04-29T15:30:23.472Z,21.40
2019-04-29T15:32:57.473Z,21.40
2019-04-29T15:35:25.506Z,21.30
2019-04-29T15:37:55.215Z,21.10
2019-04-29T15:40:26.016Z,21.10
2019-04-29T15:42:56.140Z,21.20
2019-04-29T15:45:28.041Z,21.30
2019-04-29T15:47:56.949Z,21.40
2019-04-29T15:50:26.521Z,20.50
2019-04-29T15:52:58.764Z,20.80
2019-04-29T15:55:27.324Z,21.20
2019-04-29T15:57:56.958Z,21.20
2019-04-29T16:00:26.849Z,21.00
2019-04-29T16:02:56.651Z,20.70
2019-04-29T16:06:11.150Z,20.60
2019-04-29T16:08:29.443Z,20.50
2019-04-29T16:11:14.945Z,20.70
2019-04-29T16:13:48.164Z,20.60
2019-04-29T16:16:15.742Z,20.10
2019-04-29T16:18:45.288Z,20.10
2019-04-29T16:21:15.795Z,20.00
2019-04-29T16:23:45.390Z,20.00
2019-04-29T16:26:14.944Z,19.60
2019-04-29T16:28:44.456Z,19.70
2019-04-29T16:31:14.451Z,19.70
2019-04-29T16:33:47.539Z,19.60
2019-04-29T16:36:15.491Z,19.50
2019-04-29T16:38:46.280Z,19.00
2019-04-29T16:41:44.104Z,19.00
2019-04-29T16:44:34.130Z,18.70
2019-04-29T16:46:45.200Z,18.80
2019-04-29T16:49:15.043Z,18.80
2019-04-29T16:51:47.968Z,18.70
2019-04-29T16:54:20.420Z,18.30
2019-04-29T16:56:47.125Z,18.00
2019-04-29T16:59:16.688Z,17.80
2019-04-29T17:01:46.298Z,17.50
2019-04-29T17:04:15.944Z,17.20
2019-04-29T17:07:10.786Z,17.10
2019-04-29T17:09:34.951Z,17.00
2019-04-29T17:12:04.768Z,16.90
2019-04-29T17:15:01.134Z,16.90
2019-04-29T17:17:07.817Z,16.90
2019-04-29T17:19:37.373Z,17.00
2019-04-29T17:22:24.874Z,16.90
2019-04-29T17:24:38.457Z,16.70
2019-04-29T17:27:18.917Z,16.50
2019-04-29T17:30:08.087Z,16.30
2019-04-29T17:32:53.168Z,16.00
2019-04-29T17:37:55.363Z,15.60
2019-04-29T17:40:25.083Z,15.50
2019-04-29T17:43:04.863Z,15.50
2019-04-29T17:45:42.212Z,15.20
2019-04-29T17:48:19.516Z,14.90
2019-04-29T17:50:53.278Z,14.90
2019-04-29T17:53:32.744Z,14.80
2019-04-29T17:56:30.493Z,14.70
2019-04-29T17:59:06.091Z,14.60
2019-04-29T18:01:52.808Z,14.40
2019-04-29T18:04:49.694Z,14.30
2019-04-29T18:07:25.682Z,14.10
2019-04-29T18:10:00.082Z,13.90
2019-04-29T18:12:29.657Z,13.90
2019-04-29T18:14:59.175Z,13.70
2019-04-29T18:17:32.694Z,13.50
2019-04-29T18:20:15.890Z,13.20
2019-04-29T18:22:56.146Z,13.20
2019-04-29T18:25:31.413Z,13.10
2019-04-29T18:28:01.008Z,13.10
2019-04-29T18:30:35.874Z,13.00
2019-04-29T18:33:01.829Z,13.00
2019-04-29T18:35:31.384Z,13.00
2019-04-29T18:38:00.977Z,12.90
2019-04-29T18:40:35.694Z,12.50
2019-04-29T18:43:01.825Z,12.00
2019-04-29T18:45:34.556Z,12.10
2019-04-29T18:48:02.692Z,12.20
2019-04-29T18:50:34.176Z,12.10
2019-04-29T18:53:06.781Z,12.00
2019-04-29T18:55:35.330Z,11.90
2019-04-29T18:58:05.797Z,11.60
2019-04-29T19:00:35.580Z,11.70
2019-04-29T19:03:06.602Z,11.60
2019-04-29T19:05:42.024Z,11.60
2019-04-29T19:08:14.774Z,11.40
2019-04-29T19:10:42.877Z,11.40
2019-04-29T19:13:14.169Z,11.30
2019-04-29T19:15:47.032Z,11.20
2019-04-29T19:18:17.532Z,10.90
2019-04-29T19:20:52.498Z,10.80
2019-04-29T19:23:22.501Z,10.80
2019-04-29T19:25:49.839Z,10.70
2019-04-29T19:28:29.434Z,10.60
2019-04-29T19:30:50.815Z,10.60
2019-04-29T19:33:20.388Z,10.60
2019-04-29T19:35:49.925Z,10.40
2019-04-29T19:38:19.487Z,10.50
2019-04-29T19:40:49.049Z,10.40
2019-04-29T19:43:18.979Z,10.30
2019-04-29T19:45:50.372Z,10.20
2019-04-29T19:48:22.400Z,10.00
2019-04-29T19:51:13.493Z,10.00
2019-04-29T19:53:22.616Z,9.90
2019-04-29T19:56:02.147Z,9.70
2019-04-29T19:58:29.895Z,9.50
2019-04-29T20:00:57.310Z,9.70
2019-04-29T20:03:35.749Z,9.80
2019-04-29T20:06:09.129Z,9.90
2019-04-29T20:08:52.753Z,9.60
2019-04-29T20:11:12.449Z,9.40
2019-04-29T20:13:40.354Z,9.50
2019-04-29T20:16:23.479Z,9.60
2019-04-29T20:19:02.512Z,9.50
2019-04-29T20:21:35.921Z,9.40
2019-04-29T20:24:09.846Z,9.30
2019-04-29T20:26:36.490Z,9.30
2019-04-29T20:29:07.372Z,9.30
2019-04-29T20:31:38.969Z,9.40
2019-04-29T20:34:08.490Z,9.40
2019-04-29T20:36:42.711Z,9.40
2019-04-29T20:39:15.117Z,9.20
2019-04-29T20:41:43.217Z,9.00
2019-04-29T20:44:12.102Z,8.80
2019-04-29T20:47:00.600Z,8.80
2019-04-29T20:49:12.984Z,8.80
2019-04-29T20:51:49.620Z,8.70
2019-04-29T20:54:19.633Z,8.80
2019-04-29T20:56:49.170Z,8.80
2019-04-29T20:59:19.026Z,8.70
2019-04-29T21:01:56.747Z,8.70
2019-04-29T21:04:31.937Z,8.70
2019-04-29T21:07:01.912Z,8.70
2019-04-29T21:09:30.107Z,8.80
2019-04-29T21:12:25.553Z,8.60
2019-04-29T21:14:59.502Z,8.60
2019-04-29T21:17:31.974Z,8.70
2019-04-29T21:20:02.028Z,8.80
2019-04-29T21:22:32.540Z,8.80
2019-04-29T21:25:02.085Z,8.80
2019-04-29T21:27:31.697Z,8.80
2019-04-29T21:30:01.258Z,8.80
2019-04-29T21:32:37.065Z,8.70
2019-04-29T21:35:14.489Z,8.50
2019-04-29T21:37:48.276Z,8.40
2019-04-29T21:40:38.454Z,8.40
2019-04-29T21:43:18.433Z,8.50
2019-04-29T21:45:48.449Z,8.40
2019-04-29T21:48:18.244Z,8.40
2019-04-29T21:50:47.865Z,8.30
2019-04-29T21:53:17.394Z,8.20
2019-04-29T21:55:46.927Z,8.30
2019-04-29T21:58:16.484Z,8.30
2019-04-29T22:00:46.221Z,8.10
2019-04-29T22:03:19.807Z,8.00
2019-04-29T22:05:49.261Z,8.10
2019-04-29T22:08:20.677Z,8.10
2019-04-29T22:10:51.205Z,8.20
2019-04-29T22:13:20.811Z,8.20
2019-04-29T22:15:50.461Z,8.20
2019-04-29T22:18:19.999Z,8.30
2019-04-29T22:20:49.584Z,8.30
2019-04-29T22:23:19.398Z,8.20
2019-04-29T22:25:49.090Z,8.10
2019-04-29T22:28:19.847Z,8.10
2019-04-29T22:30:54.282Z,8.00
2019-04-29T22:33:20.948Z,8.00
2019-04-29T22:35:50.583Z,7.90
2019-04-29T22:38:20.129Z,7.90
2019-04-29T22:40:50.769Z,7.80
2019-04-29T22:43:29.694Z,7.80
2019-04-29T22:45:59.243Z,7.60
2019-04-29T22:48:28.787Z,7.60
2019-04-29T22:50:58.337Z,7.50
2019-04-29T22:53:27.855Z,7.50
2019-04-29T22:55:57.898Z,7.50
2019-04-29T22:58:27.457Z,7.40
2019-04-29T23:00:57.025Z,7.40
2019-04-29T23:03:26.552Z,7.40
2019-04-29T23:06:00.115Z,7.40
2019-04-29T23:08:29.751Z,7.40
2019-04-29T23:10:59.843Z,7.40
2019-04-29T23:13:31.138Z,7.40
2019-04-29T23:16:02.201Z,7.10
2019-04-29T23:18:41.140Z,7.10
2019-04-29T23:21:19.256Z,7.10
2019-04-29T23:23:51.277Z,7.20
2019-04-29T23:26:20.822Z,7.10
2019-04-29T23:28:50.541Z,7.00
2019-04-29T23:31:22.715Z,6.90
2019-04-29T23:33:53.189Z,6.80
2019-04-29T23:36:22.576Z,6.70
2019-04-29T23:38:52.137Z,6.80
2019-04-29T23:41:21.672Z,6.70
2019-04-29T23:43:51.225Z,6.80
2019-04-29T23:46:20.813Z,6.70
2019-04-29T23:48:50.365Z,6.80
2019-04-29T23:51:19.932Z,6.80
2019-04-29T23:53:49.466Z,7.00
2019-04-29T23:56:20.713Z,6.90
2019-04-29T23:59:09.878Z,7.00
